Portland, Oregon
Traffic Map
Current Weather Conditions
Portland, Oregon
Clear
Clear
18°
Feels Like: 18°
Wind Chill: 18° Ceiling: Unl
Heat Index: 18° Visibility: 10mi
Dew Point: 12° Wind: 0mph
Humidity: 70% Direction: ° ()
Pressure: 29.97in Gusts: 0mph
Raw Report DataKPDX 251053Z 00000KT 10SM CLR 18/12 A2997 RMK AO2 SLP147 T01780122
Traffic Incident Summary
Active as of:
Severity:
Category:
InformationThere was an issue retrieving the traffic information for this location. Please try a different location or try again shortly.
Advertisements
Track Severe Weather on mobile